OEMA/MED METAR and TAF weather

Enter ICAO airport designator
Station Type Date Time Source
OEMA METAR 2019/06/20 06:00 UTC NOAA

OEMA 200600Z 00000KT CAVOK 36/M04 Q1014 NOSIG


Station Type Date Time Source
OEMA Decoded METAR 2019/06/20 06:00 UTC NOAA

Madinah, Saudi Arabia (OEMA) 24-33N 039-42E 636M
Jun 20, 2019 - 02:00 AM EDT / 2019.06.20 0600 UTC
Wind: Calm:0
Visibility: greater than 7 mile(s):0
Temperature: 96 F (36 C)
Dew Point: 24 F (-4 C)
Relative Humidity: 7%
Pressure (altimeter): 29.94 in. Hg (1014 hPa)
ob: OEMA 200600Z 00000KT CAVOK 36/M04 Q1014 NOSIG
cycle: 6

Station Type Date Time Source
OEMA TAF 2019/06/20 06:06 UTC NOAA

TAF OEMA 200500Z 2006/2112 34013KT CAVOK
BECMG 2018/2020 05010KT

Example: see airport list